Terminal Aerodrome Forecast
Issued by NWS Pittsburgh, PA

Current Version | Previous Version | Text Only | Print | Product List | Glossary Off
Versions: 1 2 3 4 5 6 7 8 9 10 11 12 13 14 15 16 17 18 19 20 21 22 23 24 25 26

000
FTUS41 KPBZ 262320
TAFPIT
TAF
KPIT 262320Z 2700/2806 26004KT P6SM BKN035 OVC045
      TEMPO 2709/2712 3SM BR BKN025
     FM271800 35003KT P6SM SCT045=

USA.gov is the U.S. government's official web portal to all federal, state and local government web resources and services.